Flight Track Log - Related Links

Times and Time Zones

All times are in EDT time to prevent confusion due to time zone crossing. See the SWA34 flight status page for this flight to view local times or setup timezone preferences in your user account.

Time Position Orientation Groundspeed Altitude Reporting Facility
EDT Latitude Longitude Course Direction KTS MPH feet Rate Location/Type
Fri 07:01:09 AM 26.0750 -80.1389 89° East 165 190 900  Level Miami Center
Fri 07:01:27 AM 26.0753 -80.1250 89° East 162 186 1,500 2,231 Climbing Miami Center
Fri 07:02:27 AM 26.0953 -80.0656 69° East 189 217 3,800 2,400 Climbing Miami Center
Fri 07:03:27 AM 26.1511 -80.0878 340° North 151 174 6,300 3,050 Climbing Miami Center
Fri 07:04:27 AM 26.2128 -80.1358 325° Northwest 194 223 9,900 3,050 Climbing Miami Center
Fri 07:05:27 AM 26.2764 -80.1864 325° Northwest 274 315 12,400 2,850 Climbing Miami Center
Fri 07:06:27 AM 26.3692 -80.2353 335° Northwest 316 364 15,600 2,850 Climbing Miami Center
Fri 07:07:27 AM 26.4500 -80.2722 338° Northwest 348 400 18,100 2,600 Climbing Miami Center
Fri 07:08:27 AM 26.5575 -80.3194 339° North 361 415 20,800 2,300 Climbing Miami Center
Fri 07:09:27 AM 26.6442 -80.3592 338° Northwest 377 434 22,700 2,400 Climbing Miami Center
Fri 07:10:27 AM 26.7556 -80.4114 337° Northwest 390 449 25,600 2,100 Climbing Miami Center
Fri 07:11:27 AM 26.8589 -80.4589 338° Northwest 390 449 26,900 700 Climbing Miami Center
Fri 07:12:27 AM 26.9622 -80.5064 338° Northwest 390 449 27,000  Climbing Miami Center
Fri 07:13:27 AM 27.0694 -80.5564 337° Northwest 390 449 26,900  Descending Miami Center
Fri 07:14:27 AM 27.1725 -80.6039 338° Northwest 395 455 27,000 50 Climbing Miami Center
Fri 07:15:27 AM 27.2778 -80.6517 338° Northwest 395 455 27,000  Level Miami Center
Fri 07:16:27 AM 27.3808 -80.7019 337° Northwest 400 460 27,000  Level Miami Center
Fri 07:17:27 AM 27.4883 -80.7475 339° North 405 466 27,000  Level Miami Center
Fri 07:18:27 AM 27.5933 -80.7981 337° Northwest 405 466 27,000 -50 Level Miami Center
Fri 07:19:27 AM 27.7006 -80.8464 338° Northwest 405 466 26,900  Descending Miami Center
Fri 07:20:27 AM 27.8078 -80.8944 338° Northwest 410 472 27,000 50 Climbing Miami Center
Fri 07:21:27 AM 27.9128 -80.9453 337° Northwest 410 472 27,000  Level Miami Center
Fri 07:22:27 AM 28.0158 -80.9936 338° Northwest 410 472 27,000  Level Miami Center
Fri 07:23:27 AM 28.1208 -81.0422 338° Northwest 410 472 27,000  Level Miami Center
Fri 07:24:27 AM 28.2236 -81.0908 337° Northwest 410 472 27,000  Level Miami Center
Fri 07:26:15 AM 28.3992 -81.1747 337° Northwest 402 463 27,000  Level Jacksonville Center
Fri 07:27:15 AM 28.5000 -81.2225 337° Northwest 396 456 27,000 -400 Level Jacksonville Center
Fri 07:28:15 AM 28.6031 -81.2706 338° Northwest 396 456 26,200 -950 Descending Jacksonville Center
Fri 07:29:15 AM 28.6994 -81.3161 337° Northwest 391 450 25,100 -1,100 Descending Jacksonville Center
Fri 07:30:15 AM 28.7939 -81.3597 338° Northwest 380 437 24,000 -1,000 Descending Jacksonville Center
Fri 07:31:15 AM 28.8944 -81.3725 354° North 364 419 23,100 -950 Descending Jacksonville Center
Fri 07:32:15 AM 28.9925 -81.3806 356° North 358 412 22,100 -1,034 Descending Jacksonville Center
Fri 07:33:11 AM 29.0969 -81.3931 354° North 358 412 21,100 -1,030 Descending Jacksonville Center
Fri 07:33:54 AM 29.1639 -81.4017 354° North 355 409 20,400 -938 Descending Jacksonville Center
Fri 07:34:15 AM 29.1911 -81.4011 North 353 406 20,100 -1,000 Descending Jacksonville Center
Fri 07:34:48 AM 29.2539 -81.4097 353° North 349 402 19,500 -1,000 Descending Jacksonville Center
Fri 07:35:15 AM 29.2872 -81.4092 North 353 406 19,100 -984 Descending Jacksonville Center
Fri 07:35:49 AM 29.3500 -81.4203 351° North 348 400 18,500 -1,000 Descending Jacksonville Center
Fri 07:36:15 AM 29.3917 -81.4244 355° North 348 400 18,100 -689 Descending Jacksonville Center
Fri 07:36:50 AM 29.4439 -81.4283 356° North 342 394 17,800 -600 Descending Jacksonville Center
Fri 07:37:15 AM 29.4858 -81.4325 355° North 342 394 17,500 -1,455 Descending Jacksonville Center
Fri 07:37:56 AM 29.5483 -81.4411 353° North 333 383 16,200 -1,700 Descending Jacksonville Center
Fri 07:38:15 AM 29.5756 -81.4431 356° North 337 388 15,800 -1,869 Descending Jacksonville Center
Fri 07:38:57 AM 29.6219 -81.4878 320° Northwest 316 364 14,300 -2,000 Descending Jacksonville Center
Fri 07:39:15 AM 29.6431 -81.5019 330° Northwest 306 352 13,800 -1,180 Descending Jacksonville Center
Fri 07:39:58 AM 29.6853 -81.5539 313° West 296 341 13,100 -800 Descending Jacksonville Center
Fri 07:40:15 AM 29.7003 -81.5728 312° West 297 342 13,000 -100 Descending Jacksonville Center
Fri 07:40:58 AM 29.7425 -81.6225 314° West 302 348 13,000  Level Jacksonville Center
Fri 07:41:15 AM 29.7614 -81.6414 319° Northwest 297 342 13,000 -98 Level Jacksonville Center
Fri 07:41:59 AM 29.8261 -81.6381 North 324 373 12,900 -400 Descending Jacksonville Center
Fri 07:42:15 AM 29.8469 -81.6378 North 281 323 12,600 -1,527 Descending Jacksonville Center
Fri 07:42:54 AM 29.9011 -81.6181 18° North 306 352 11,500 -1,429 Descending Jacksonville Center
Fri 07:44:00 AM 29.9867 -81.6264 355° North 255 293 10,100 -1,323 Descending Jacksonville Center
Fri 07:45:01 AM 30.0539 -81.6494 343° North 251 289 8,700 -1,574 Descending Jacksonville Center
Fri 07:46:02 AM 30.1231 -81.6797 339° North 258 297 6,900 -1,736 Descending Jacksonville Center
Fri 07:47:02 AM 30.1900 -81.7031 343° North 267 307 5,200 -1,537 Descending Jacksonville Center
Fri 07:48:03 AM 30.2592 -81.7286 342° North 258 297 3,800 -1,031 Descending Jacksonville Center
Fri 07:49:10 AM 30.3325 -81.7589 340° North 246 283 3,000 -632 Descending Jacksonville Center
Fri 07:50:16 AM 30.4017 -81.7847 342° North 227 261 2,400 -561 Descending Jacksonville Center
Fri 07:51:29 AM 30.4728 -81.8103 343° North 215 247 1,700 -313 Descending Jacksonville Center
Fri 07:52:30 AM 30.5233 -81.8556 322° Northwest 231 266 1,700  Level Jacksonville Center
Fri 07:53:31 AM 30.5714 -81.8719 344° North 210 242 1,700  Level Jacksonville Center
Fri 07:54:31 AM 30.5711 -81.8164 90° East 189 217 1,700  Level Jacksonville Center
Fri 07:55:08 AM 30.5542 -81.7878 125° Southeast 187 215 1,700 -367 Level Jacksonville Center
Fri 07:56:09 AM 30.5244 -81.7494 132° Southeast 134 154 1,100 -647 Descending Jacksonville Center
Fri 07:57:27 AM 30.4928 -81.7089 132° Southeast 130 150 200 -692 Descending Jacksonville Center
Fri 07:59:00 AM 30.4833 -81.6833 311° West  Level FlightAware Approximate
Fri 08:06:00 AM 30.4941 -81.6879 311° West  Level Estimated

Login

Don't have an account? Register now (free) for customized features, flight alerts, and more!